sensor_id;sensor_type;location;lat;lon;timestamp;temperature;humidity
46231;DHT22;31949;51.404;-0.038;2023-04-03T00:01:21;5.70;99.90
46231;DHT22;31949;51.404;-0.038;2023-04-03T00:03:51;5.70;99.90
46231;DHT22;31949;51.404;-0.038;2023-04-03T00:06:18;5.60;99.90
46231;DHT22;31949;51.404;-0.038;2023-04-03T00:08:46;5.60;99.90
46231;DHT22;31949;51.404;-0.038;2023-04-03T00:11:13;5.60;99.90
46231;DHT22;31949;51.404;-0.038;2023-04-03T00:13:42;5.60;99.90
46231;DHT22;31949;51.404;-0.038;2023-04-03T00:16:09;5.50;99.90
46231;DHT22;31949;51.404;-0.038;2023-04-03T00:18:39;5.50;99.90
46231;DHT22;31949;51.404;-0.038;2023-04-03T00:21:07;5.50;99.90
46231;DHT22;31949;51.404;-0.038;2023-04-03T00:23:34;5.50;99.90
46231;DHT22;31949;51.404;-0.038;2023-04-03T00:26:02;5.40;99.90
46231;DHT22;31949;51.404;-0.038;2023-04-03T00:28:29;5.40;99.90
46231;DHT22;31949;51.404;-0.038;2023-04-03T00:30:57;5.40;99.90
46231;DHT22;31949;51.404;-0.038;2023-04-03T00:33:24;5.40;99.90
46231;DHT22;31949;51.404;-0.038;2023-04-03T00:35:52;5.30;99.90
46231;DHT22;31949;51.404;-0.038;2023-04-03T00:38:19;5.20;99.90
46231;DHT22;31949;51.404;-0.038;2023-04-03T00:40:48;5.20;99.90
46231;DHT22;31949;51.404;-0.038;2023-04-03T00:45:52;5.20;99.90
46231;DHT22;31949;51.404;-0.038;2023-04-03T00:48:32;5.10;99.90
46231;DHT22;31949;51.404;-0.038;2023-04-03T00:51:03;5.10;99.90
46231;DHT22;31949;51.404;-0.038;2023-04-03T00:53:37;5.10;99.90
46231;DHT22;31949;51.404;-0.038;2023-04-03T00:56:08;5.10;99.90
46231;DHT22;31949;51.404;-0.038;2023-04-03T00:58:51;5.10;99.90
46231;DHT22;31949;51.404;-0.038;2023-04-03T01:01:23;5.00;99.90
46231;DHT22;31949;51.404;-0.038;2023-04-03T01:03:51;5.00;99.90
46231;DHT22;31949;51.404;-0.038;2023-04-03T01:06:23;4.90;99.90
46231;DHT22;31949;51.404;-0.038;2023-04-03T01:08:52;5.00;99.90
46231;DHT22;31949;51.404;-0.038;2023-04-03T01:11:19;4.90;99.90
46231;DHT22;31949;51.404;-0.038;2023-04-03T01:13:48;4.90;99.90
46231;DHT22;31949;51.404;-0.038;2023-04-03T01:16:16;4.90;99.90
46231;DHT22;31949;51.404;-0.038;2023-04-03T01:18:44;4.90;99.90
46231;DHT22;31949;51.404;-0.038;2023-04-03T01:22:06;4.90;99.90
46231;DHT22;31949;51.404;-0.038;2023-04-03T01:24:25;4.80;99.90
46231;DHT22;31949;51.404;-0.038;2023-04-03T01:26:54;4.80;99.90
46231;DHT22;31949;51.404;-0.038;2023-04-03T01:29:22;4.80;99.90
46231;DHT22;31949;51.404;-0.038;2023-04-03T01:31:51;4.80;99.90
46231;DHT22;31949;51.404;-0.038;2023-04-03T01:34:20;4.80;99.90
46231;DHT22;31949;51.404;-0.038;2023-04-03T01:36:49;4.70;99.90
46231;DHT22;31949;51.404;-0.038;2023-04-03T01:39:18;4.60;99.90
46231;DHT22;31949;51.404;-0.038;2023-04-03T01:41:45;4.70;99.90
46231;DHT22;31949;51.404;-0.038;2023-04-03T01:44:21;4.60;99.90
46231;DHT22;31949;51.404;-0.038;2023-04-03T01:46:49;4.60;99.90
46231;DHT22;31949;51.404;-0.038;2023-04-03T01:49:16;4.60;99.90
46231;DHT22;31949;51.404;-0.038;2023-04-03T01:51:43;4.60;99.90
46231;DHT22;31949;51.404;-0.038;2023-04-03T01:54:11;4.60;99.90
46231;DHT22;31949;51.404;-0.038;2023-04-03T01:56:38;4.50;99.90
46231;DHT22;31949;51.404;-0.038;2023-04-03T01:59:07;4.50;99.90
46231;DHT22;31949;51.404;-0.038;2023-04-03T02:01:35;4.50;99.90
46231;DHT22;31949;51.404;-0.038;2023-04-03T02:04:03;4.50;99.90
46231;DHT22;31949;51.404;-0.038;2023-04-03T02:06:30;4.50;99.90
46231;DHT22;31949;51.404;-0.038;2023-04-03T02:08:57;4.50;99.90
46231;DHT22;31949;51.404;-0.038;2023-04-03T02:11:25;4.50;99.90
46231;DHT22;31949;51.404;-0.038;2023-04-03T02:13:52;4.40;99.90
46231;DHT22;31949;51.404;-0.038;2023-04-03T02:16:19;4.40;99.90
46231;DHT22;31949;51.404;-0.038;2023-04-03T02:18:48;4.40;99.90
46231;DHT22;31949;51.404;-0.038;2023-04-03T02:21:16;4.40;99.90
46231;DHT22;31949;51.404;-0.038;2023-04-03T02:23:43;4.30;99.90
46231;DHT22;31949;51.404;-0.038;2023-04-03T02:26:13;4.30;99.90
46231;DHT22;31949;51.404;-0.038;2023-04-03T02:28:40;4.30;99.90
46231;DHT22;31949;51.404;-0.038;2023-04-03T02:31:10;4.30;99.90
46231;DHT22;31949;51.404;-0.038;2023-04-03T02:33:40;4.30;99.90
46231;DHT22;31949;51.404;-0.038;2023-04-03T02:36:09;4.30;99.90
46231;DHT22;31949;51.404;-0.038;2023-04-03T02:38:39;4.20;99.90
46231;DHT22;31949;51.404;-0.038;2023-04-03T02:41:10;4.20;99.90
46231;DHT22;31949;51.404;-0.038;2023-04-03T02:43:38;4.20;99.90
46231;DHT22;31949;51.404;-0.038;2023-04-03T02:46:06;4.20;99.90
46231;DHT22;31949;51.404;-0.038;2023-04-03T02:48:34;4.20;99.90
46231;DHT22;31949;51.404;-0.038;2023-04-03T02:51:02;4.20;99.90
46231;DHT22;31949;51.404;-0.038;2023-04-03T02:53:29;4.10;99.90
46231;DHT22;31949;51.404;-0.038;2023-04-03T02:55:58;4.10;99.90
46231;DHT22;31949;51.404;-0.038;2023-04-03T02:58:25;4.10;99.90
46231;DHT22;31949;51.404;-0.038;2023-04-03T03:00:55;4.10;99.90
46231;DHT22;31949;51.404;-0.038;2023-04-03T03:03:22;4.00;99.90
46231;DHT22;31949;51.404;-0.038;2023-04-03T03:05:50;4.00;99.90
46231;DHT22;31949;51.404;-0.038;2023-04-03T03:08:17;4.00;99.90
46231;DHT22;31949;51.404;-0.038;2023-04-03T03:10:47;4.00;99.90
46231;DHT22;31949;51.404;-0.038;2023-04-03T03:13:14;3.90;99.90
46231;DHT22;31949;51.404;-0.038;2023-04-03T03:15:41;3.90;99.90
46231;DHT22;31949;51.404;-0.038;2023-04-03T03:18:08;3.90;99.90
46231;DHT22;31949;51.404;-0.038;2023-04-03T03:20:35;3.80;99.90
46231;DHT22;31949;51.404;-0.038;2023-04-03T03:23:03;3.90;99.90
46231;DHT22;31949;51.404;-0.038;2023-04-03T03:25:30;3.80;99.90
46231;DHT22;31949;51.404;-0.038;2023-04-03T03:27:57;3.70;99.90
46231;DHT22;31949;51.404;-0.038;2023-04-03T03:30:24;3.80;99.90
46231;DHT22;31949;51.404;-0.038;2023-04-03T03:32:52;3.70;99.90
46231;DHT22;31949;51.404;-0.038;2023-04-03T03:35:19;3.70;99.90
46231;DHT22;31949;51.404;-0.038;2023-04-03T03:37:47;3.70;99.90
46231;DHT22;31949;51.404;-0.038;2023-04-03T03:40:14;3.70;99.90
46231;DHT22;31949;51.404;-0.038;2023-04-03T03:42:44;3.60;99.90
46231;DHT22;31949;51.404;-0.038;2023-04-03T03:45:11;3.60;99.90
46231;DHT22;31949;51.404;-0.038;2023-04-03T03:47:38;3.50;99.90
46231;DHT22;31949;51.404;-0.038;2023-04-03T03:50:06;3.50;99.90
46231;DHT22;31949;51.404;-0.038;2023-04-03T03:52:34;3.50;99.90
46231;DHT22;31949;51.404;-0.038;2023-04-03T03:55:01;3.40;99.90
46231;DHT22;31949;51.404;-0.038;2023-04-03T03:57:29;3.50;99.90
46231;DHT22;31949;51.404;-0.038;2023-04-03T03:59:56;3.40;99.90
46231;DHT22;31949;51.404;-0.038;2023-04-03T04:02:24;3.40;99.90
46231;DHT22;31949;51.404;-0.038;2023-04-03T04:04:52;3.40;99.90
46231;DHT22;31949;51.404;-0.038;2023-04-03T04:07:19;3.30;99.90
46231;DHT22;31949;51.404;-0.038;2023-04-03T04:09:47;3.30;99.90
46231;DHT22;31949;51.404;-0.038;2023-04-03T04:12:14;3.30;99.90
46231;DHT22;31949;51.404;-0.038;2023-04-03T04:14:41;3.30;99.90
46231;DHT22;31949;51.404;-0.038;2023-04-03T04:17:09;3.30;99.90
46231;DHT22;31949;51.404;-0.038;2023-04-03T04:19:36;3.40;99.90
46231;DHT22;31949;51.404;-0.038;2023-04-03T04:22:04;3.40;99.90
46231;DHT22;31949;51.404;-0.038;2023-04-03T04:24:32;3.40;99.90
46231;DHT22;31949;51.404;-0.038;2023-04-03T04:27:01;3.40;99.90
46231;DHT22;31949;51.404;-0.038;2023-04-03T04:29:31;3.50;99.90
46231;DHT22;31949;51.404;-0.038;2023-04-03T04:32:04;3.60;99.90
46231;DHT22;31949;51.404;-0.038;2023-04-03T04:34:31;3.60;99.90
46231;DHT22;31949;51.404;-0.038;2023-04-03T04:36:59;3.60;99.90
46231;DHT22;31949;51.404;-0.038;2023-04-03T04:39:27;3.60;99.90
46231;DHT22;31949;51.404;-0.038;2023-04-03T04:41:56;3.60;99.90
46231;DHT22;31949;51.404;-0.038;2023-04-03T04:44:26;3.60;99.90
46231;DHT22;31949;51.404;-0.038;2023-04-03T04:46:54;3.60;99.90
46231;DHT22;31949;51.404;-0.038;2023-04-03T04:49:21;3.50;99.90
46231;DHT22;31949;51.404;-0.038;2023-04-03T04:51:48;3.50;99.90
46231;DHT22;31949;51.404;-0.038;2023-04-03T04:54:23;3.60;99.90
46231;DHT22;31949;51.404;-0.038;2023-04-03T04:56:51;3.60;99.90
46231;DHT22;31949;51.404;-0.038;2023-04-03T04:59:19;3.60;99.90
46231;DHT22;31949;51.404;-0.038;2023-04-03T05:01:48;3.60;99.90
46231;DHT22;31949;51.404;-0.038;2023-04-03T05:04:16;3.60;99.90
46231;DHT22;31949;51.404;-0.038;2023-04-03T05:06:47;3.60;99.90
46231;DHT22;31949;51.404;-0.038;2023-04-03T05:09:19;3.70;99.90
46231;DHT22;31949;51.404;-0.038;2023-04-03T05:11:48;3.70;99.90
46231;DHT22;31949;51.404;-0.038;2023-04-03T05:14:16;3.70;99.90
46231;DHT22;31949;51.404;-0.038;2023-04-03T05:16:44;3.60;99.90
46231;DHT22;31949;51.404;-0.038;2023-04-03T05:19:12;3.70;99.90
46231;DHT22;31949;51.404;-0.038;2023-04-03T05:21:40;3.70;99.90
46231;DHT22;31949;51.404;-0.038;2023-04-03T05:24:11;3.70;99.90
46231;DHT22;31949;51.404;-0.038;2023-04-03T05:26:42;3.80;99.90
46231;DHT22;31949;51.404;-0.038;2023-04-03T05:29:10;3.80;99.90
46231;DHT22;31949;51.404;-0.038;2023-04-03T05:31:38;3.80;99.90
46231;DHT22;31949;51.404;-0.038;2023-04-03T05:34:07;3.90;99.90
46231;DHT22;31949;51.404;-0.038;2023-04-03T05:36:36;3.90;99.90
46231;DHT22;31949;51.404;-0.038;2023-04-03T05:39:07;3.90;99.90
46231;DHT22;31949;51.404;-0.038;2023-04-03T05:41:37;3.90;99.90
46231;DHT22;31949;51.404;-0.038;2023-04-03T05:44:04;3.90;99.90
46231;DHT22;31949;51.404;-0.038;2023-04-03T05:46:33;4.00;99.90
46231;DHT22;31949;51.404;-0.038;2023-04-03T05:49:04;4.00;99.90
46231;DHT22;31949;51.404;-0.038;2023-04-03T05:51:35;4.10;99.90
46231;DHT22;31949;51.404;-0.038;2023-04-03T05:54:31;4.10;99.90
46231;DHT22;31949;51.404;-0.038;2023-04-03T05:57:08;4.10;99.90
46231;DHT22;31949;51.404;-0.038;2023-04-03T05:59:36;4.20;99.90
46231;DHT22;31949;51.404;-0.038;2023-04-03T06:02:04;4.20;99.90
46231;DHT22;31949;51.404;-0.038;2023-04-03T06:04:31;4.20;99.90
46231;DHT22;31949;51.404;-0.038;2023-04-03T06:06:59;4.30;99.90
46231;DHT22;31949;51.404;-0.038;2023-04-03T06:09:28;4.30;99.90
46231;DHT22;31949;51.404;-0.038;2023-04-03T06:11:56;4.30;99.90
46231;DHT22;31949;51.404;-0.038;2023-04-03T06:14:27;4.30;99.90
46231;DHT22;31949;51.404;-0.038;2023-04-03T06:16:54;4.40;99.90
46231;DHT22;31949;51.404;-0.038;2023-04-03T06:19:22;4.40;99.90
46231;DHT22;31949;51.404;-0.038;2023-04-03T06:21:54;4.40;99.90
46231;DHT22;31949;51.404;-0.038;2023-04-03T06:24:23;4.40;99.90
46231;DHT22;31949;51.404;-0.038;2023-04-03T06:26:53;4.50;99.90
46231;DHT22;31949;51.404;-0.038;2023-04-03T06:29:20;4.50;99.90
46231;DHT22;31949;51.404;-0.038;2023-04-03T06:31:48;4.50;99.90
46231;DHT22;31949;51.404;-0.038;2023-04-03T06:34:16;4.60;99.90
46231;DHT22;31949;51.404;-0.038;2023-04-03T06:36:44;4.60;99.90
46231;DHT22;31949;51.404;-0.038;2023-04-03T06:39:17;4.70;99.90
46231;DHT22;31949;51.404;-0.038;2023-04-03T06:41:44;4.70;99.90
46231;DHT22;31949;51.404;-0.038;2023-04-03T06:44:12;4.70;99.90
46231;DHT22;31949;51.404;-0.038;2023-04-03T06:46:43;4.80;99.90
46231;DHT22;31949;51.404;-0.038;2023-04-03T06:49:11;4.80;99.90
46231;DHT22;31949;51.404;-0.038;2023-04-03T06:51:40;4.90;99.90
46231;DHT22;31949;51.404;-0.038;2023-04-03T06:54:07;4.90;99.90
46231;DHT22;31949;51.404;-0.038;2023-04-03T06:56:35;4.90;99.90
46231;DHT22;31949;51.404;-0.038;2023-04-03T06:59:02;4.90;99.90
46231;DHT22;31949;51.404;-0.038;2023-04-03T07:01:30;5.00;99.90
46231;DHT22;31949;51.404;-0.038;2023-04-03T07:03:58;5.10;99.90
46231;DHT22;31949;51.404;-0.038;2023-04-03T07:06:25;5.10;99.90
46231;DHT22;31949;51.404;-0.038;2023-04-03T07:08:54;5.20;99.90
46231;DHT22;31949;51.404;-0.038;2023-04-03T07:11:22;5.30;99.90
46231;DHT22;31949;51.404;-0.038;2023-04-03T07:13:50;5.30;99.90
46231;DHT22;31949;51.404;-0.038;2023-04-03T07:16:18;5.50;99.90
46231;DHT22;31949;51.404;-0.038;2023-04-03T07:18:45;5.70;99.90
46231;DHT22;31949;51.404;-0.038;2023-04-03T07:21:13;6.00;99.90
46231;DHT22;31949;51.404;-0.038;2023-04-03T07:23:40;6.20;99.90
46231;DHT22;31949;51.404;-0.038;2023-04-03T07:26:08;6.40;99.90
46231;DHT22;31949;51.404;-0.038;2023-04-03T07:28:36;6.50;99.90
46231;DHT22;31949;51.404;-0.038;2023-04-03T07:31:06;6.50;99.90
46231;DHT22;31949;51.404;-0.038;2023-04-03T07:33:36;6.50;99.90
46231;DHT22;31949;51.404;-0.038;2023-04-03T07:36:05;6.50;99.90
46231;DHT22;31949;51.404;-0.038;2023-04-03T07:38:35;6.50;99.90
46231;DHT22;31949;51.404;-0.038;2023-04-03T07:41:04;6.50;99.90
46231;DHT22;31949;51.404;-0.038;2023-04-03T07:43:31;6.60;99.90
46231;DHT22;31949;51.404;-0.038;2023-04-03T07:45:59;6.60;99.90
46231;DHT22;31949;51.404;-0.038;2023-04-03T07:48:27;6.60;99.90
46231;DHT22;31949;51.404;-0.038;2023-04-03T07:50:59;6.60;99.90
46231;DHT22;31949;51.404;-0.038;2023-04-03T07:53:27;6.80;99.90
46231;DHT22;31949;51.404;-0.038;2023-04-03T07:55:57;7.00;99.90
46231;DHT22;31949;51.404;-0.038;2023-04-03T07:58:25;7.20;99.90
46231;DHT22;31949;51.404;-0.038;2023-04-03T08:00:52;7.30;99.90
46231;DHT22;31949;51.404;-0.038;2023-04-03T08:03:19;7.50;99.90
46231;DHT22;31949;51.404;-0.038;2023-04-03T08:05:48;7.50;99.90
46231;DHT22;31949;51.404;-0.038;2023-04-03T08:08:18;7.60;99.90
46231;DHT22;31949;51.404;-0.038;2023-04-03T08:10:51;7.70;99.90
46231;DHT22;31949;51.404;-0.038;2023-04-03T08:13:21;7.80;99.90
46231;DHT22;31949;51.404;-0.038;2023-04-03T08:15:48;7.80;99.90
46231;DHT22;31949;51.404;-0.038;2023-04-03T08:18:16;7.80;99.90
46231;DHT22;31949;51.404;-0.038;2023-04-03T08:20:43;7.90;99.90
46231;DHT22;31949;51.404;-0.038;2023-04-03T08:23:11;7.90;99.90
46231;DHT22;31949;51.404;-0.038;2023-04-03T08:25:39;8.00;99.90
46231;DHT22;31949;51.404;-0.038;2023-04-03T08:28:09;8.10;99.90
46231;DHT22;31949;51.404;-0.038;2023-04-03T08:30:40;8.20;99.90
46231;DHT22;31949;51.404;-0.038;2023-04-03T08:33:09;8.20;99.90
46231;DHT22;31949;51.404;-0.038;2023-04-03T08:35:40;8.20;99.90
46231;DHT22;31949;51.404;-0.038;2023-04-03T08:38:09;8.30;99.90
46231;DHT22;31949;51.404;-0.038;2023-04-03T08:40:45;8.30;99.90
46231;DHT22;31949;51.404;-0.038;2023-04-03T08:45:55;8.40;99.90
46231;DHT22;31949;51.404;-0.038;2023-04-03T08:48:38;8.50;99.90
46231;DHT22;31949;51.404;-0.038;2023-04-03T08:51:16;8.60;99.90
46231;DHT22;31949;51.404;-0.038;2023-04-03T08:54:00;8.60;99.90
46231;DHT22;31949;51.404;-0.038;2023-04-03T08:56:32;8.70;99.90
46231;DHT22;31949;51.404;-0.038;2023-04-03T08:59:05;8.80;99.90
46231;DHT22;31949;51.404;-0.038;2023-04-03T09:01:39;8.90;99.90
46231;DHT22;31949;51.404;-0.038;2023-04-03T09:04:13;9.00;99.90
46231;DHT22;31949;51.404;-0.038;2023-04-03T09:06:55;9.00;99.90
46231;DHT22;31949;51.404;-0.038;2023-04-03T09:09:37;9.10;99.90
46231;DHT22;31949;51.404;-0.038;2023-04-03T09:14:57;9.20;99.90
46231;DHT22;31949;51.404;-0.038;2023-04-03T09:23:00;9.60;99.90
46231;DHT22;31949;51.404;-0.038;2023-04-03T09:25:32;9.70;99.90
46231;DHT22;31949;51.404;-0.038;2023-04-03T09:28:01;9.80;99.90
46231;DHT22;31949;51.404;-0.038;2023-04-03T09:30:29;9.90;99.90
46231;DHT22;31949;51.404;-0.038;2023-04-03T09:32:57;10.00;99.90
46231;DHT22;31949;51.404;-0.038;2023-04-03T09:35:33;10.00;99.90
46231;DHT22;31949;51.404;-0.038;2023-04-03T09:38:17;10.10;99.90
46231;DHT22;31949;51.404;-0.038;2023-04-03T09:41:34;10.10;99.90
46231;DHT22;31949;51.404;-0.038;2023-04-03T09:43:37;10.20;99.90
46231;DHT22;31949;51.404;-0.038;2023-04-03T09:49:02;10.50;99.90
46231;DHT22;31949;51.404;-0.038;2023-04-03T09:51:32;10.50;99.90
46231;DHT22;31949;51.404;-0.038;2023-04-03T09:53:59;10.60;99.90
46231;DHT22;31949;51.404;-0.038;2023-04-03T09:56:29;10.50;99.90
46231;DHT22;31949;51.404;-0.038;2023-04-03T10:01:36;10.60;99.90
46231;DHT22;31949;51.404;-0.038;2023-04-03T10:04:18;10.60;99.90
46231;DHT22;31949;51.404;-0.038;2023-04-03T10:06:48;10.50;99.90
46231;DHT22;31949;51.404;-0.038;2023-04-03T10:09:24;10.50;99.90
46231;DHT22;31949;51.404;-0.038;2023-04-03T10:14:36;10.50;99.90
46231;DHT22;31949;51.404;-0.038;2023-04-03T10:25:44;10.60;99.90
46231;DHT22;31949;51.404;-0.038;2023-04-03T10:28:27;10.60;99.90
46231;DHT22;31949;51.404;-0.038;2023-04-03T10:31:23;10.60;99.90
46231;DHT22;31949;51.404;-0.038;2023-04-03T10:45:26;10.60;99.90
46231;DHT22;31949;51.404;-0.038;2023-04-03T10:50:52;10.70;99.90
46231;DHT22;31949;51.404;-0.038;2023-04-03T10:53:49;10.70;99.90
46231;DHT22;31949;51.404;-0.038;2023-04-03T10:56:37;10.80;99.90
46231;DHT22;31949;51.404;-0.038;2023-04-03T10:59:29;10.90;99.90
46231;DHT22;31949;51.404;-0.038;2023-04-03T11:04:36;11.00;99.90
46231;DHT22;31949;51.404;-0.038;2023-04-03T11:07:18;11.00;99.90
46231;DHT22;31949;51.404;-0.038;2023-04-03T11:09:50;11.10;99.90
46231;DHT22;31949;51.404;-0.038;2023-04-03T11:12:21;11.20;99.90
46231;DHT22;31949;51.404;-0.038;2023-04-03T11:14:51;11.20;99.90
46231;DHT22;31949;51.404;-0.038;2023-04-03T11:19:58;11.30;99.90
46231;DHT22;31949;51.404;-0.038;2023-04-03T11:22:30;11.30;99.90
46231;DHT22;31949;51.404;-0.038;2023-04-03T11:33:40;11.60;99.90
46231;DHT22;31949;51.404;-0.038;2023-04-03T11:36:18;11.80;99.90
46231;DHT22;31949;51.404;-0.038;2023-04-03T11:38:58;12.00;99.90
46231;DHT22;31949;51.404;-0.038;2023-04-03T11:41:31;12.10;99.90
46231;DHT22;31949;51.404;-0.038;2023-04-03T11:44:03;12.30;99.90
46231;DHT22;31949;51.404;-0.038;2023-04-03T11:49:56;12.40;99.90
46231;DHT22;31949;51.404;-0.038;2023-04-03T12:24:28;12.30;99.90
46231;DHT22;31949;51.404;-0.038;2023-04-03T12:27:21;12.40;99.90
46231;DHT22;31949;51.404;-0.038;2023-04-03T12:41:50;12.40;99.90
46231;DHT22;31949;51.404;-0.038;2023-04-03T12:44:54;12.40;99.90
46231;DHT22;31949;51.404;-0.038;2023-04-03T12:47:28;12.50;99.90
46231;DHT22;31949;51.404;-0.038;2023-04-03T12:49:57;12.50;99.90
46231;DHT22;31949;51.404;-0.038;2023-04-03T12:54:53;12.50;99.90
46231;DHT22;31949;51.404;-0.038;2023-04-03T12:57:24;12.40;99.90
46231;DHT22;31949;51.404;-0.038;2023-04-03T12:59:52;12.40;99.90
46231;DHT22;31949;51.404;-0.038;2023-04-03T13:04:53;12.40;99.90
46231;DHT22;31949;51.404;-0.038;2023-04-03T13:07:33;12.40;99.90
46231;DHT22;31949;51.404;-0.038;2023-04-03T13:10:03;12.30;99.90
46231;DHT22;31949;51.404;-0.038;2023-04-03T13:12:31;12.20;99.90
46231;DHT22;31949;51.404;-0.038;2023-04-03T13:15:11;12.10;99.90
46231;DHT22;31949;51.404;-0.038;2023-04-03T13:17:40;12.10;99.90
46231;DHT22;31949;51.404;-0.038;2023-04-03T13:20:34;12.10;99.90
46231;DHT22;31949;51.404;-0.038;2023-04-03T13:25:32;12.20;99.90
46231;DHT22;31949;51.404;-0.038;2023-04-03T13:28:03;12.30;99.90
46231;DHT22;31949;51.404;-0.038;2023-04-03T13:30:41;12.30;99.90
46231;DHT22;31949;51.404;-0.038;2023-04-03T13:33:27;12.30;99.90
46231;DHT22;31949;51.404;-0.038;2023-04-03T13:36:16;12.50;99.90
46231;DHT22;31949;51.404;-0.038;2023-04-03T13:38:44;12.40;99.90
46231;DHT22;31949;51.404;-0.038;2023-04-03T13:41:37;12.40;99.90
46231;DHT22;31949;51.404;-0.038;2023-04-03T13:46:55;12.60;99.90
46231;DHT22;31949;51.404;-0.038;2023-04-03T13:51:55;12.50;99.90
46231;DHT22;31949;51.404;-0.038;2023-04-03T13:54:38;12.50;99.90
46231;DHT22;31949;51.404;-0.038;2023-04-03T13:57:16;12.50;99.90
46231;DHT22;31949;51.404;-0.038;2023-04-03T13:59:44;12.50;99.90
46231;DHT22;31949;51.404;-0.038;2023-04-03T14:07:14;12.60;99.90
46231;DHT22;31949;51.404;-0.038;2023-04-03T14:09:43;12.70;99.90
46231;DHT22;31949;51.404;-0.038;2023-04-03T14:15:00;12.70;99.90
46231;DHT22;31949;51.404;-0.038;2023-04-03T14:17:29;12.80;99.90
46231;DHT22;31949;51.404;-0.038;2023-04-03T14:19:57;12.70;99.90
46231;DHT22;31949;51.404;-0.038;2023-04-03T14:22:28;12.60;99.90
46231;DHT22;31949;51.404;-0.038;2023-04-03T14:24:55;12.50;99.90
46231;DHT22;31949;51.404;-0.038;2023-04-03T14:27:26;12.60;99.90
46231;DHT22;31949;51.404;-0.038;2023-04-03T14:29:56;12.60;99.90
46231;DHT22;31949;51.404;-0.038;2023-04-03T14:32:25;12.50;99.90
46231;DHT22;31949;51.404;-0.038;2023-04-03T14:34:54;12.60;99.90
46231;DHT22;31949;51.404;-0.038;2023-04-03T14:37:25;12.70;99.90
46231;DHT22;31949;51.404;-0.038;2023-04-03T14:39:55;12.70;99.90
46231;DHT22;31949;51.404;-0.038;2023-04-03T14:42:26;12.70;99.90
46231;DHT22;31949;51.404;-0.038;2023-04-03T14:44:54;12.70;99.90
46231;DHT22;31949;51.404;-0.038;2023-04-03T14:47:25;12.60;99.90
46231;DHT22;31949;51.404;-0.038;2023-04-03T14:50:00;12.70;99.90
46231;DHT22;31949;51.404;-0.038;2023-04-03T14:52:32;12.80;99.90
46231;DHT22;31949;51.404;-0.038;2023-04-03T14:55:01;12.80;99.90
46231;DHT22;31949;51.404;-0.038;2023-04-03T14:57:29;12.70;99.90
46231;DHT22;31949;51.404;-0.038;2023-04-03T14:59:57;12.70;99.90
46231;DHT22;31949;51.404;-0.038;2023-04-03T15:04:54;12.60;99.90
46231;DHT22;31949;51.404;-0.038;2023-04-03T15:07:24;12.70;99.90
46231;DHT22;31949;51.404;-0.038;2023-04-03T15:09:52;12.70;99.90
46231;DHT22;31949;51.404;-0.038;2023-04-03T15:12:19;12.70;99.90
46231;DHT22;31949;51.404;-0.038;2023-04-03T15:14:47;12.70;99.90
46231;DHT22;31949;51.404;-0.038;2023-04-03T15:17:26;12.50;99.90
46231;DHT22;31949;51.404;-0.038;2023-04-03T15:19:53;12.50;99.90
46231;DHT22;31949;51.404;-0.038;2023-04-03T15:22:20;12.60;99.90
46231;DHT22;31949;51.404;-0.038;2023-04-03T15:24:47;12.50;99.90
46231;DHT22;31949;51.404;-0.038;2023-04-03T15:27:15;12.50;99.90
46231;DHT22;31949;51.404;-0.038;2023-04-03T15:29:43;12.50;99.90
46231;DHT22;31949;51.404;-0.038;2023-04-03T15:32:11;12.50;99.90
46231;DHT22;31949;51.404;-0.038;2023-04-03T15:34:39;12.50;99.90
46231;DHT22;31949;51.404;-0.038;2023-04-03T15:37:06;12.40;99.90
46231;DHT22;31949;51.404;-0.038;2023-04-03T15:39:34;12.40;99.90
46231;DHT22;31949;51.404;-0.038;2023-04-03T15:42:01;12.30;99.90
46231;DHT22;31949;51.404;-0.038;2023-04-03T15:44:34;12.20;99.90
46231;DHT22;31949;51.404;-0.038;2023-04-03T15:47:03;12.20;99.90
46231;DHT22;31949;51.404;-0.038;2023-04-03T15:49:33;12.10;99.90
46231;DHT22;31949;51.404;-0.038;2023-04-03T15:52:01;12.10;99.90
46231;DHT22;31949;51.404;-0.038;2023-04-03T15:54:28;12.10;99.90
46231;DHT22;31949;51.404;-0.038;2023-04-03T15:56:56;12.10;99.90
46231;DHT22;31949;51.404;-0.038;2023-04-03T15:59:24;12.00;99.90
46231;DHT22;31949;51.404;-0.038;2023-04-03T16:01:52;11.90;99.90
46231;DHT22;31949;51.404;-0.038;2023-04-03T16:04:20;12.00;99.90
46231;DHT22;31949;51.404;-0.038;2023-04-03T16:06:48;11.90;99.90
46231;DHT22;31949;51.404;-0.038;2023-04-03T16:09:16;11.90;99.90
46231;DHT22;31949;51.404;-0.038;2023-04-03T16:11:43;11.90;99.90
46231;DHT22;31949;51.404;-0.038;2023-04-03T16:14:11;11.90;99.90
46231;DHT22;31949;51.404;-0.038;2023-04-03T16:16:39;11.90;99.90
46231;DHT22;31949;51.404;-0.038;2023-04-03T16:19:07;11.80;99.90
46231;DHT22;31949;51.404;-0.038;2023-04-03T16:21:35;11.90;99.90
46231;DHT22;31949;51.404;-0.038;2023-04-03T16:24:03;11.80;99.90
46231;DHT22;31949;51.404;-0.038;2023-04-03T16:26:30;11.80;99.90
46231;DHT22;31949;51.404;-0.038;2023-04-03T16:28:58;11.60;99.10
46231;DHT22;31949;51.404;-0.038;2023-04-03T16:31:26;11.50;99.30
46231;DHT22;31949;51.404;-0.038;2023-04-03T16:33:54;11.50;99.20
46231;DHT22;31949;51.404;-0.038;2023-04-03T16:36:24;11.40;99.90
46231;DHT22;31949;51.404;-0.038;2023-04-03T16:38:52;11.30;99.90
46231;DHT22;31949;51.404;-0.038;2023-04-03T16:41:19;11.30;99.90
46231;DHT22;31949;51.404;-0.038;2023-04-03T16:43:47;11.30;99.90
46231;DHT22;31949;51.404;-0.038;2023-04-03T16:46:14;11.30;99.90
46231;DHT22;31949;51.404;-0.038;2023-04-03T16:48:42;11.20;99.90
46231;DHT22;31949;51.404;-0.038;2023-04-03T16:51:09;11.20;99.90
46231;DHT22;31949;51.404;-0.038;2023-04-03T16:53:36;11.20;99.90
46231;DHT22;31949;51.404;-0.038;2023-04-03T16:56:04;11.20;99.90
46231;DHT22;31949;51.404;-0.038;2023-04-03T16:58:31;11.20;99.90
46231;DHT22;31949;51.404;-0.038;2023-04-03T17:00:58;11.00;99.90
46231;DHT22;31949;51.404;-0.038;2023-04-03T17:03:26;11.00;99.90
46231;DHT22;31949;51.404;-0.038;2023-04-03T17:05:55;11.00;99.90
46231;DHT22;31949;51.404;-0.038;2023-04-03T17:08:23;10.90;99.90
46231;DHT22;31949;51.404;-0.038;2023-04-03T17:10:50;10.80;99.90
46231;DHT22;31949;51.404;-0.038;2023-04-03T17:13:20;10.70;99.90
46231;DHT22;31949;51.404;-0.038;2023-04-03T17:15:48;10.60;99.90
46231;DHT22;31949;51.404;-0.038;2023-04-03T17:18:15;10.50;99.90
46231;DHT22;31949;51.404;-0.038;2023-04-03T17:20:42;10.50;99.90
46231;DHT22;31949;51.404;-0.038;2023-04-03T17:23:10;10.40;99.90
46231;DHT22;31949;51.404;-0.038;2023-04-03T17:25:37;10.30;99.90
46231;DHT22;31949;51.404;-0.038;2023-04-03T17:28:04;10.20;99.90
46231;DHT22;31949;51.404;-0.038;2023-04-03T17:30:32;10.30;99.90
46231;DHT22;31949;51.404;-0.038;2023-04-03T17:32:59;10.20;99.90
46231;DHT22;31949;51.404;-0.038;2023-04-03T17:35:27;10.10;99.90
46231;DHT22;31949;51.404;-0.038;2023-04-03T17:37:55;10.10;99.90
46231;DHT22;31949;51.404;-0.038;2023-04-03T17:40:22;10.10;99.90
46231;DHT22;31949;51.404;-0.038;2023-04-03T17:42:49;10.00;99.90
46231;DHT22;31949;51.404;-0.038;2023-04-03T17:45:16;9.90;99.90
46231;DHT22;31949;51.404;-0.038;2023-04-03T17:47:44;9.80;99.90
46231;DHT22;31949;51.404;-0.038;2023-04-03T17:50:12;9.70;99.90
46231;DHT22;31949;51.404;-0.038;2023-04-03T17:52:42;9.70;99.90